M/V R.j. Cheramie — WDG3635 — position and weather

sailwx.info

Track history (hours):
 
Tides and Currents Weather Stations Pressure Air Temp Water Temp Dewpoint Dewpoint Depression Visibility Wind Speed Wind Dir Waves Ship Positions

M/V R.j. Cheramie

Owner: D&S Marine Service, LLC R.J. Cheramie, Gray, LA. More information available from US FCC via Universal Licensing System and Coast Guard Vessel Documentation Center.

Last reported at 2017-Dec-10 15:29 UTC. Time now 2017-Dec-11 11:21 UTC.
Position N 29°59' W 093°47'.

Length 298 m; draft 2.7 m.

Type: . MMSI: 367528110.

Date/timePositionNaut miles runAvg speedWind from/ knotsBaromVisibWave heightAir tempDewpointWater temp
2017-Dec-10 15:29N 29°59' W 093°47'3 6.5
2017-Dec-10 15:00N 30°01' W 093°44'3 5.5
2017-Dec-10 14:30N 30°03' W 093°42'3 5.7
2017-Dec-10 14:01N 30°04' W 093°39'3 5.6
2017-Dec-10 13:31N 30°04' W 093°36'3 5.0
2017-Dec-10 13:00N 30°04' W 093°33'2 5.0
2017-Dec-10 12:30N 30°04' W 093°30'3 5.2
2017-Dec-10 12:01N 30°04' W 093°27'3 5.1
2017-Dec-10 11:30N 30°04' W 093°24'2 4.5
2017-Dec-10 11:00N 30°04' W 093°21'2 4.5
2017-Dec-10 10:31N 30°05' W 093°20'2 3.6
2017-Dec-10 10:00N 30°05' W 093°18'2 4.9
2017-Dec-10 09:30N 30°03' W 093°16'1 3.0
2017-Dec-10 09:01N 30°02' W 093°15'2 4.2
2017-Dec-10 08:30N 30°00' W 093°14'2 4.8
2017-Dec-10 08:00N 29°58' W 093°12'2 4.9
2017-Dec-10 07:31N 29°57' W 093°10'2 4.2
2017-Dec-10 07:00N 29°56' W 093°08'2 3.4
2017-Dec-10 06:30N 29°56' W 093°06'1 2.0
2017-Dec-10 06:01N 29°56' W 093°04'37 4.4
2017-Dec-09 21:33N 29°51' W 092°22'0 3.6
2017-Dec-09 21:30N 29°51' W 092°22'1 2.7
2017-Dec-09 21:01N 29°51' W 092°20'1 2.8
2017-Dec-09 20:30N 29°50' W 092°19'2 3.9
2017-Dec-09 20:00N 29°49' W 092°17'2 4.4
2017-Dec-09 19:31N 29°48' W 092°15'2 4.2
2017-Dec-09 19:01N 29°47' W 092°12'2 4.7
2017-Dec-09 18:30N 29°47' W 092°10'2 4.4
2017-Dec-09 18:01N 29°47' W 092°07'2 4.9
2017-Dec-09 17:30N 29°48' W 092°05'2 4.7
2017-Dec-09 17:01N 29°49' W 092°02'2 5.0
2017-Dec-09 16:30N 29°50' W 091°60'  
2017-Dec-03 21:04N 29°30' W 094°52'0 5.5
2017-Dec-03 21:00N 29°30' W 094°52'3 6.3
2017-Dec-03 20:30N 29°33' W 094°54'3 6.6
2017-Dec-03 20:00N 29°35' W 094°56'3 6.9
2017-Dec-03 19:30N 29°39' W 094°58'4 7.2
2017-Dec-03 19:00N 29°42' W 094°60'3 6.0
2017-Dec-03 18:30N 29°44' W 095°02'3 1.6
2017-Dec-03 16:41N 29°46' W 095°05'0 0.3
2017-Dec-03 15:10N 29°46' W 095°05'1 1.6
2017-Dec-03 14:21N 29°47' W 095°04'1 1.0
2017-Dec-03 13:19N 29°46' W 095°05'1 1.2
2017-Dec-03 12:33N 29°47' W 095°04'1 3.8
2017-Dec-03 12:15N 29°46' W 095°05'1 5.7
2017-Dec-03 12:00N 29°45' W 095°04'3 5.1
2017-Dec-03 11:30N 29°43' W 095°01'2 4.9
2017-Dec-03 11:00N 29°41' W 094°59'2 4.9
2017-Dec-03 10:30N 29°39' W 094°58'2 4.9
2017-Dec-03 10:00N 29°37' W 094°57'3 5.2
2017-Dec-03 09:30N 29°35' W 094°56'3 5.3
2017-Dec-03 09:00N 29°32' W 094°54'3 5.4
2017-Dec-03 08:30N 29°30' W 094°52'3 5.4
2017-Dec-03 07:51N 29°27' W 094°51'5 3.1
2017-Dec-03 06:19N 29°22' W 094°50'2 5.4
2017-Dec-03 06:00N 29°23' W 094°52'1 1.8
2017-Dec-03 05:24N 29°22' W 094°53'2 2.7
2017-Dec-03 04:38N 29°22' W 094°51'1 5.4
2017-Dec-03 04:30N 29°22' W 094°50'2 4.7
2017-Dec-03 04:00N 29°22' W 094°47'3 5.2
2017-Dec-03 03:30N 29°24' W 094°45'3 5.0
2017-Dec-03 03:00N 29°26' W 094°43'2 4.6
2017-Dec-03 02:30N 29°27' W 094°41'2 3.2
2017-Dec-03 02:00N 29°28' W 094°40'2 4.8
2017-Dec-03 01:30N 29°29' W 094°37'55 3.7
2017-Dec-02 10:42N 30°01' W 093°46'0 0.0
2017-Dec-02 10:31N 30°01' W 093°46'2 0.4
2017-Dec-02 06:35N 30°02' W 093°44'1 5.2
2017-Dec-02 06:26N 30°03' W 093°44'2 4.9
2017-Dec-02 06:00N 30°04' W 093°42'3 5.0
2017-Dec-02 05:28N 30°04' W 093°38'3 4.8
2017-Dec-02 04:56N 30°04' W 093°35'2 4.7
2017-Dec-02 04:30N 30°04' W 093°33'2 4.8
2017-Dec-02 04:00N 30°04' W 093°30'2 4.8
2017-Dec-02 03:30N 30°04' W 093°28'2 4.8
2017-Dec-02 03:00N 30°04' W 093°25'2 4.4
2017-Dec-02 02:30N 30°04' W 093°22'2 3.4
2017-Dec-02 02:00N 30°04' W 093°21'2 3.6
2017-Dec-02 01:30N 30°06' W 093°19'2 3.1
2017-Dec-02 01:00N 30°05' W 093°18'1 2.0
2017-Dec-02 00:30N 30°05' W 093°17'1 1.3
2017-Dec-02 00:00N 30°04' W 093°16'0 0.5
2017-Dec-01 23:30N 30°04' W 093°16'1 2.7
2017-Dec-01 23:00N 30°03' W 093°16'1 1.9
2017-Dec-01 22:30N 30°02' W 093°15'2 3.5
2017-Dec-01 22:00N 30°01' W 093°14'2 4.4
2017-Dec-01 21:30N 29°59' W 093°12'2 4.6
2017-Dec-01 21:00N 29°57' W 093°10'2 4.2
2017-Dec-01 20:30N 29°56' W 093°08'2 4.6
2017-Dec-01 19:59N 29°56' W 093°06'38 3.6
2017-Dec-01 09:30N 29°51' W 092°22'2 4.1
2017-Dec-01 09:00N 29°50' W 092°20'2 4.2
2017-Dec-01 08:30N 29°49' W 092°18'2 4.5
2017-Dec-01 08:01N 29°48' W 092°15'2 4.7
2017-Dec-01 07:30N 29°47' W 092°13'1 1.7
2017-Dec-01 07:00N 29°47' W 092°12'1 1.1
2017-Dec-01 06:30N 29°47' W 092°11'0 0.1
2017-Dec-01 06:00N 29°47' W 092°11'0 0.0
2017-Dec-01 05:30N 29°47' W 092°11'0 0.6
2017-Dec-01 05:00N 29°47' W 092°11'2 3.2
2017-Dec-01 04:31N 29°47' W 092°09'2 4.9
2017-Dec-01 04:01N 29°48' W 092°06'3 4.9
2017-Dec-01 03:29N 29°49' W 092°04'2 4.8
2017-Dec-01 03:00N 29°49' W 092°01'  
Track history (hours):
 
Tides and Currents Weather Stations Pressure Air Temp Water Temp Dewpoint Dewpoint Depression Visibility Wind Speed Wind Dir Waves Ship Positions

M/V R.j. Cheramie

Owner: D&S Marine Service, LLC R.J. Cheramie, Gray, LA. More information available from US FCC via Universal Licensing System and Coast Guard Vessel Documentation Center.

Last reported at 2017-Dec-10 15:29 UTC. Time now 2017-Dec-11 11:21 UTC.
Position N 29°59' W 093°47'.

Length 298 m; draft 2.7 m.

Type: . MMSI: 367528110.

Date/timePositionNaut miles runAvg speedWind from/ knotsBaromVisibWave heightAir tempDewpointWater temp
2017-Dec-10 15:29N 29°59' W 093°47'3 6.5
2017-Dec-10 15:00N 30°01' W 093°44'3 5.5
2017-Dec-10 14:30N 30°03' W 093°42'3 5.7
2017-Dec-10 14:01N 30°04' W 093°39'3 5.6
2017-Dec-10 13:31N 30°04' W 093°36'3 5.0
2017-Dec-10 13:00N 30°04' W 093°33'2 5.0
2017-Dec-10 12:30N 30°04' W 093°30'3 5.2
2017-Dec-10 12:01N 30°04' W 093°27'3 5.1
2017-Dec-10 11:30N 30°04' W 093°24'2 4.5
2017-Dec-10 11:00N 30°04' W 093°21'2 4.5
2017-Dec-10 10:31N 30°05' W 093°20'2 3.6
2017-Dec-10 10:00N 30°05' W 093°18'2 4.9
2017-Dec-10 09:30N 30°03' W 093°16'1 3.0
2017-Dec-10 09:01N 30°02' W 093°15'2 4.2
2017-Dec-10 08:30N 30°00' W 093°14'2 4.8
2017-Dec-10 08:00N 29°58' W 093°12'2 4.9
2017-Dec-10 07:31N 29°57' W 093°10'2 4.2
2017-Dec-10 07:00N 29°56' W 093°08'2 3.4
2017-Dec-10 06:30N 29°56' W 093°06'1 2.0
2017-Dec-10 06:01N 29°56' W 093°04'37 4.4
2017-Dec-09 21:33N 29°51' W 092°22'0 3.6
2017-Dec-09 21:30N 29°51' W 092°22'1 2.7
2017-Dec-09 21:01N 29°51' W 092°20'1 2.8
2017-Dec-09 20:30N 29°50' W 092°19'2 3.9
2017-Dec-09 20:00N 29°49' W 092°17'2 4.4
2017-Dec-09 19:31N 29°48' W 092°15'2 4.2
2017-Dec-09 19:01N 29°47' W 092°12'2 4.7
2017-Dec-09 18:30N 29°47' W 092°10'2 4.4
2017-Dec-09 18:01N 29°47' W 092°07'2 4.9
2017-Dec-09 17:30N 29°48' W 092°05'2 4.7
2017-Dec-09 17:01N 29°49' W 092°02'2 5.0
2017-Dec-09 16:30N 29°50' W 091°60'  
2017-Dec-03 21:04N 29°30' W 094°52'0 5.5
2017-Dec-03 21:00N 29°30' W 094°52'3 6.3
2017-Dec-03 20:30N 29°33' W 094°54'3 6.6
2017-Dec-03 20:00N 29°35' W 094°56'3 6.9
2017-Dec-03 19:30N 29°39' W 094°58'4 7.2
2017-Dec-03 19:00N 29°42' W 094°60'3 6.0
2017-Dec-03 18:30N 29°44' W 095°02'3 1.6
2017-Dec-03 16:41N 29°46' W 095°05'0 0.3
2017-Dec-03 15:10N 29°46' W 095°05'1 1.6
2017-Dec-03 14:21N 29°47' W 095°04'1 1.0
2017-Dec-03 13:19N 29°46' W 095°05'1 1.2
2017-Dec-03 12:33N 29°47' W 095°04'1 3.8
2017-Dec-03 12:15N 29°46' W 095°05'1 5.7
2017-Dec-03 12:00N 29°45' W 095°04'3 5.1
2017-Dec-03 11:30N 29°43' W 095°01'2 4.9
2017-Dec-03 11:00N 29°41' W 094°59'2 4.9
2017-Dec-03 10:30N 29°39' W 094°58'2 4.9
2017-Dec-03 10:00N 29°37' W 094°57'3 5.2
2017-Dec-03 09:30N 29°35' W 094°56'3 5.3
2017-Dec-03 09:00N 29°32' W 094°54'3 5.4
2017-Dec-03 08:30N 29°30' W 094°52'3 5.4
2017-Dec-03 07:51N 29°27' W 094°51'5 3.1
2017-Dec-03 06:19N 29°22' W 094°50'2 5.4
2017-Dec-03 06:00N 29°23' W 094°52'1 1.8
2017-Dec-03 05:24N 29°22' W 094°53'2 2.7
2017-Dec-03 04:38N 29°22' W 094°51'1 5.4
2017-Dec-03 04:30N 29°22' W 094°50'2 4.7
2017-Dec-03 04:00N 29°22' W 094°47'3 5.2
2017-Dec-03 03:30N 29°24' W 094°45'3 5.0
2017-Dec-03 03:00N 29°26' W 094°43'2 4.6
2017-Dec-03 02:30N 29°27' W 094°41'2 3.2
2017-Dec-03 02:00N 29°28' W 094°40'2 4.8
2017-Dec-03 01:30N 29°29' W 094°37'55 3.7
2017-Dec-02 10:42N 30°01' W 093°46'0 0.0
2017-Dec-02 10:31N 30°01' W 093°46'2 0.4
2017-Dec-02 06:35N 30°02' W 093°44'1 5.2
2017-Dec-02 06:26N 30°03' W 093°44'2 4.9
2017-Dec-02 06:00N 30°04' W 093°42'3 5.0
2017-Dec-02 05:28N 30°04' W 093°38'3 4.8
2017-Dec-02 04:56N 30°04' W 093°35'2 4.7
2017-Dec-02 04:30N 30°04' W 093°33'2 4.8
2017-Dec-02 04:00N 30°04' W 093°30'2 4.8
2017-Dec-02 03:30N 30°04' W 093°28'2 4.8
2017-Dec-02 03:00N 30°04' W 093°25'2 4.4
2017-Dec-02 02:30N 30°04' W 093°22'2 3.4
2017-Dec-02 02:00N 30°04' W 093°21'2 3.6
2017-Dec-02 01:30N 30°06' W 093°19'2 3.1
2017-Dec-02 01:00N 30°05' W 093°18'1 2.0
2017-Dec-02 00:30N 30°05' W 093°17'1 1.3
2017-Dec-02 00:00N 30°04' W 093°16'0 0.5
2017-Dec-01 23:30N 30°04' W 093°16'1 2.7
2017-Dec-01 23:00N 30°03' W 093°16'1 1.9
2017-Dec-01 22:30N 30°02' W 093°15'2 3.5
2017-Dec-01 22:00N 30°01' W 093°14'2 4.4
2017-Dec-01 21:30N 29°59' W 093°12'2 4.6
2017-Dec-01 21:00N 29°57' W 093°10'2 4.2
2017-Dec-01 20:30N 29°56' W 093°08'2 4.6
2017-Dec-01 19:59N 29°56' W 093°06'38 3.6
2017-Dec-01 09:30N 29°51' W 092°22'2 4.1
2017-Dec-01 09:00N 29°50' W 092°20'2 4.2
2017-Dec-01 08:30N 29°49' W 092°18'2 4.5
2017-Dec-01 08:01N 29°48' W 092°15'2 4.7
2017-Dec-01 07:30N 29°47' W 092°13'1 1.7
2017-Dec-01 07:00N 29°47' W 092°12'1 1.1
2017-Dec-01 06:30N 29°47' W 092°11'0 0.1
2017-Dec-01 06:00N 29°47' W 092°11'0 0.0
2017-Dec-01 05:30N 29°47' W 092°11'0 0.6
2017-Dec-01 05:00N 29°47' W 092°11'2 3.2
2017-Dec-01 04:31N 29°47' W 092°09'2 4.9
2017-Dec-01 04:01N 29°48' W 092°06'3 4.9
2017-Dec-01 03:29N 29°49' W 092°04'2 4.8
2017-Dec-01 03:00N 29°49' W 092°01'  

Dump ship's entire track history